createdAt,value
2023-03-19T00:00:45.151Z,9.63
2023-03-19T00:01:46.635Z,9.63
2023-03-19T00:02:44.440Z,9.63
2023-03-19T00:03:45.212Z,9.63
2023-03-19T00:04:45.119Z,9.63
2023-03-19T00:05:45.084Z,9.62
2023-03-19T00:06:45.093Z,9.61
2023-03-19T00:07:45.050Z,9.60
2023-03-19T00:08:45.057Z,9.60
2023-03-19T00:09:45.032Z,9.60
2023-03-19T00:10:45.039Z,9.61
2023-03-19T00:11:45.012Z,9.61
2023-03-19T00:12:45.757Z,9.61
2023-03-19T00:13:44.998Z,9.60
2023-03-19T00:14:44.981Z,9.61
2023-03-19T00:15:44.967Z,9.62
2023-03-19T00:16:44.984Z,9.63
2023-03-19T00:17:44.908Z,9.64
2023-03-19T00:18:44.930Z,9.64
2023-03-19T00:19:44.912Z,9.64
2023-03-19T00:20:44.904Z,9.63
2023-03-19T00:21:44.883Z,9.63
2023-03-19T00:22:44.845Z,9.62
2023-03-19T00:23:44.850Z,9.60
2023-03-19T00:24:44.842Z,9.59
2023-03-19T00:25:44.837Z,9.57
2023-03-19T00:26:44.516Z,9.54
2023-03-19T00:27:44.562Z,9.52
2023-03-19T00:28:44.794Z,9.50
2023-03-19T00:29:45.494Z,9.48
2023-03-19T00:30:44.544Z,9.46
2023-03-19T00:31:44.508Z,9.42
2023-03-19T00:32:44.530Z,9.39
2023-03-19T00:33:44.502Z,9.36
2023-03-19T00:34:44.540Z,9.32
2023-03-19T00:35:44.014Z,9.28
2023-03-19T00:36:44.670Z,9.23
2023-03-19T00:37:44.008Z,9.17
2023-03-19T00:38:44.655Z,9.12
2023-03-19T00:39:44.649Z,9.07
2023-03-19T00:40:45.338Z,9.01
2023-03-19T00:41:44.613Z,8.96
2023-03-19T00:42:43.890Z,8.90
2023-03-19T00:43:44.210Z,8.84
2023-03-19T00:44:44.577Z,8.78
2023-03-19T00:45:43.981Z,8.74
2023-03-19T00:46:44.306Z,8.70
2023-03-19T00:47:44.507Z,8.67
2023-03-19T00:48:44.517Z,8.64
2023-03-19T00:49:44.505Z,8.60
2023-03-19T00:50:44.488Z,8.55
2023-03-19T00:51:44.475Z,8.52
2023-03-19T00:52:45.199Z,8.48
2023-03-19T00:53:45.170Z,8.43
2023-03-19T00:54:45.146Z,8.38
2023-03-19T00:55:45.144Z,8.34
2023-03-19T00:56:44.423Z,8.28
2023-03-19T00:57:44.376Z,8.26
2023-03-19T00:58:45.106Z,8.24
2023-03-19T00:59:44.360Z,8.20
2023-03-19T01:00:44.356Z,8.19
2023-03-19T01:01:45.089Z,8.17
2023-03-19T01:02:45.053Z,8.14
2023-03-19T01:03:44.319Z,8.11
2023-03-19T01:04:44.446Z,8.10
2023-03-19T01:05:44.287Z,8.09
2023-03-19T01:06:43.545Z,8.07
2023-03-19T01:07:44.242Z,8.04
2023-03-19T01:08:44.249Z,8.01
2023-03-19T01:09:44.229Z,7.97
2023-03-19T01:10:44.205Z,7.95
2023-03-19T01:11:44.215Z,7.94
2023-03-19T01:12:43.565Z,7.91
2023-03-19T01:13:44.148Z,7.89
2023-03-19T01:14:44.864Z,7.87
2023-03-19T01:15:44.141Z,7.84
2023-03-19T01:16:44.129Z,7.83
2023-03-19T01:17:44.111Z,7.81
2023-03-19T01:18:44.087Z,7.81
2023-03-19T01:19:44.309Z,7.80
2023-03-19T01:20:44.099Z,7.78
2023-03-19T01:21:44.068Z,7.75
2023-03-19T01:22:44.049Z,7.71
2023-03-19T01:23:44.014Z,7.67
2023-03-19T01:24:44.017Z,7.64
2023-03-19T01:25:44.013Z,7.61
2023-03-19T01:26:43.998Z,7.57
2023-03-19T01:27:44.006Z,7.53
2023-03-19T01:28:43.935Z,7.50
2023-03-19T01:29:43.978Z,7.47
2023-03-19T01:30:43.224Z,7.43
2023-03-19T01:31:43.946Z,7.39
2023-03-19T01:32:43.931Z,7.36
2023-03-19T01:33:43.873Z,7.33
2023-03-19T01:34:43.893Z,7.29
2023-03-19T01:35:43.926Z,7.25
2023-03-19T01:36:43.860Z,7.20
2023-03-19T01:37:43.615Z,7.18
2023-03-19T01:38:43.577Z,7.16
2023-03-19T01:39:43.569Z,7.15
2023-03-19T01:40:43.584Z,7.13
2023-03-19T01:41:43.572Z,7.11
2023-03-19T01:42:43.792Z,7.08
2023-03-19T01:43:43.739Z,7.05
2023-03-19T01:44:43.749Z,7.03
2023-03-19T01:45:43.731Z,7.01
2023-03-19T01:46:43.096Z,7.01
2023-03-19T01:47:43.595Z,7.01
2023-03-19T01:48:43.738Z,6.99
2023-03-19T01:49:43.576Z,6.98
2023-03-19T01:50:43.669Z,6.96
2023-03-19T01:51:43.672Z,6.93
2023-03-19T01:52:43.644Z,6.91
2023-03-19T01:53:43.205Z,6.89
2023-03-19T01:54:43.594Z,6.87
2023-03-19T01:55:43.585Z,6.84
2023-03-19T01:56:44.304Z,6.82
2023-03-19T01:57:43.590Z,6.80
2023-03-19T01:58:44.295Z,6.79
2023-03-19T01:59:43.561Z,6.80
2023-03-19T02:00:43.549Z,6.79
2023-03-19T02:01:43.574Z,6.77
2023-03-19T02:02:43.511Z,6.77
2023-03-19T02:03:43.481Z,6.77
2023-03-19T02:04:43.509Z,6.76
2023-03-19T02:05:43.466Z,6.73
2023-03-19T02:06:43.472Z,6.70
2023-03-19T02:07:43.438Z,6.66
2023-03-19T02:08:43.403Z,6.65
2023-03-19T02:09:43.189Z,6.62
2023-03-19T02:10:43.400Z,6.61
2023-03-19T02:11:43.376Z,6.58
2023-03-19T02:12:43.402Z,6.54
2023-03-19T02:13:43.334Z,6.50
2023-03-19T02:14:43.350Z,6.46
2023-03-19T02:15:43.398Z,6.43
2023-03-19T02:16:43.322Z,6.41
2023-03-19T02:17:43.304Z,6.38
2023-03-19T02:18:43.288Z,6.35
2023-03-19T02:19:43.291Z,6.33
2023-03-19T02:20:43.258Z,6.31
2023-03-19T02:21:43.250Z,6.30
2023-03-19T02:22:43.241Z,6.30
2023-03-19T02:23:43.209Z,6.31
2023-03-19T02:24:43.220Z,6.29
2023-03-19T02:25:43.192Z,6.28
2023-03-19T02:26:43.196Z,6.30
2023-03-19T02:27:43.169Z,6.31
2023-03-19T02:28:43.141Z,6.32
2023-03-19T02:29:43.142Z,6.35
2023-03-19T02:30:43.128Z,6.38
2023-03-19T02:31:43.173Z,6.39
2023-03-19T02:32:43.152Z,6.40
2023-03-19T02:33:43.068Z,6.40
2023-03-19T02:34:42.367Z,6.40
2023-03-19T02:35:43.131Z,6.42
2023-03-19T02:36:43.047Z,6.46
2023-03-19T02:37:43.041Z,6.48
2023-03-19T02:38:42.997Z,6.49
2023-03-19T02:39:42.999Z,6.49
2023-03-19T02:40:42.986Z,6.49
2023-03-19T02:41:42.981Z,6.48
2023-03-19T02:42:42.253Z,6.48
2023-03-19T02:43:42.935Z,6.48
2023-03-19T02:44:43.663Z,6.51
2023-03-19T02:45:42.927Z,6.53
2023-03-19T02:46:42.929Z,6.55
2023-03-19T02:47:42.898Z,6.55
2023-03-19T02:48:42.860Z,6.55
2023-03-19T02:49:42.876Z,6.55
2023-03-19T02:50:42.140Z,6.58
2023-03-19T02:51:42.596Z,6.62
2023-03-19T02:52:42.600Z,6.64
2023-03-19T02:53:42.794Z,6.67
2023-03-19T02:54:42.804Z,6.70
2023-03-19T02:55:42.802Z,6.72
2023-03-19T02:56:42.781Z,6.72
2023-03-19T02:57:42.759Z,6.71
2023-03-19T02:58:42.623Z,6.69
2023-03-19T02:59:42.755Z,6.66
2023-03-19T03:00:42.767Z,6.64
2023-03-19T03:01:42.765Z,6.63
2023-03-19T03:02:42.693Z,6.64
2023-03-19T03:03:42.733Z,6.66
2023-03-19T03:04:42.637Z,6.68
2023-03-19T03:05:42.656Z,6.70
2023-03-19T03:06:42.248Z,6.72
2023-03-19T03:07:43.337Z,6.73
2023-03-19T03:08:42.619Z,6.74
2023-03-19T03:09:42.614Z,6.74
2023-03-19T03:10:43.306Z,6.74
2023-03-19T03:11:43.300Z,6.74
2023-03-19T03:12:43.275Z,6.75
2023-03-19T03:13:43.278Z,6.77
2023-03-19T03:14:43.287Z,6.80
2023-03-19T03:15:43.235Z,6.83
2023-03-19T03:16:43.294Z,6.84
2023-03-19T03:17:43.216Z,6.84
2023-03-19T03:18:42.484Z,6.84
2023-03-19T03:19:42.448Z,6.84
2023-03-19T03:20:42.470Z,6.84
2023-03-19T03:21:42.444Z,6.84
2023-03-19T03:22:42.449Z,6.83
2023-03-19T03:23:42.413Z,6.83
2023-03-19T03:24:42.388Z,6.83
2023-03-19T03:25:42.389Z,6.83
2023-03-19T03:26:42.377Z,6.84
2023-03-19T03:27:42.375Z,6.84
2023-03-19T03:28:42.355Z,6.85
2023-03-19T03:29:42.311Z,6.86
2023-03-19T03:30:42.319Z,6.89
2023-03-19T03:31:42.406Z,6.90
2023-03-19T03:32:42.327Z,6.91
2023-03-19T03:33:42.275Z,6.92
2023-03-19T03:34:42.241Z,6.93
2023-03-19T03:35:42.252Z,6.94
2023-03-19T03:36:42.249Z,6.96
2023-03-19T03:37:42.228Z,6.97
2023-03-19T03:38:42.197Z,6.98
2023-03-19T03:39:42.182Z,7.00
2023-03-19T03:40:42.194Z,7.01
2023-03-19T03:41:42.186Z,7.02
2023-03-19T03:42:42.164Z,7.02
2023-03-19T03:43:42.147Z,7.02
2023-03-19T03:44:42.109Z,7.02
2023-03-19T03:45:42.149Z,7.02
2023-03-19T03:46:42.118Z,7.01
2023-03-19T03:47:42.107Z,7.00
2023-03-19T03:48:42.075Z,6.99
2023-03-19T03:49:42.046Z,6.99
2023-03-19T03:50:42.051Z,6.98
2023-03-19T03:51:42.048Z,6.97
2023-03-19T03:52:42.064Z,6.96
2023-03-19T03:53:42.005Z,6.95
2023-03-19T03:54:41.983Z,6.94
2023-03-19T03:55:42.001Z,6.94
2023-03-19T03:56:41.972Z,6.94
2023-03-19T03:57:41.683Z,6.93
2023-03-19T03:58:41.943Z,6.93
2023-03-19T03:59:41.902Z,6.93
2023-03-19T04:00:41.911Z,6.93
2023-03-19T04:01:41.694Z,6.93
2023-03-19T04:02:41.968Z,6.92
2023-03-19T04:03:41.882Z,6.92
2023-03-19T04:04:41.841Z,6.92
2023-03-19T04:05:41.860Z,6.92
2023-03-19T04:06:41.848Z,6.93
2023-03-19T04:07:41.829Z,6.94
2023-03-19T04:08:41.211Z,6.95
2023-03-19T04:09:41.398Z,6.96
2023-03-19T04:10:41.784Z,6.97
2023-03-19T04:11:41.785Z,6.98
2023-03-19T04:12:41.548Z,7.00
2023-03-19T04:13:41.748Z,7.01
2023-03-19T04:14:41.722Z,7.02
2023-03-19T04:15:41.726Z,7.02
2023-03-19T04:16:41.729Z,7.02
2023-03-19T04:17:42.416Z,7.02
2023-03-19T04:18:41.711Z,7.01
2023-03-19T04:19:42.394Z,7.01
2023-03-19T04:20:42.370Z,7.00
2023-03-19T04:21:42.367Z,7.00
2023-03-19T04:22:42.353Z,7.01
2023-03-19T04:23:42.342Z,7.03
2023-03-19T04:24:42.350Z,7.05
2023-03-19T04:25:42.300Z,7.06
2023-03-19T04:26:42.300Z,7.07
2023-03-19T04:27:42.296Z,7.08
2023-03-19T04:28:42.263Z,7.09
2023-03-19T04:29:42.269Z,7.11
2023-03-19T04:30:42.572Z,7.11
2023-03-19T04:31:42.233Z,7.11
2023-03-19T04:32:41.547Z,7.12
2023-03-19T04:33:41.507Z,7.12
2023-03-19T04:34:41.475Z,7.12
2023-03-19T04:35:41.501Z,7.12
2023-03-19T04:36:41.448Z,7.13
2023-03-19T04:37:41.429Z,7.13
2023-03-19T04:38:41.424Z,7.13
2023-03-19T04:39:41.378Z,7.14
2023-03-19T04:40:41.376Z,7.14
2023-03-19T04:41:41.368Z,7.15
2023-03-19T04:42:41.354Z,7.16
2023-03-19T04:43:41.347Z,7.18
2023-03-19T04:44:41.305Z,7.19
2023-03-19T04:45:41.314Z,7.22
2023-03-19T04:46:41.305Z,7.24
2023-03-19T04:47:42.020Z,7.25
2023-03-19T04:48:41.287Z,7.26
2023-03-19T04:49:41.240Z,7.27
2023-03-19T04:50:41.249Z,7.28
2023-03-19T04:51:41.248Z,7.29
2023-03-19T04:52:41.221Z,7.31
2023-03-19T04:53:41.212Z,7.32
2023-03-19T04:54:41.186Z,7.32
2023-03-19T04:55:41.198Z,7.32
2023-03-19T04:56:41.172Z,7.33
2023-03-19T04:57:40.716Z,7.32
2023-03-19T04:58:41.151Z,7.32
2023-03-19T04:59:41.115Z,7.31
2023-03-19T05:00:41.124Z,7.31
2023-03-19T05:01:41.121Z,7.30
2023-03-19T05:02:41.090Z,7.30
2023-03-19T05:03:41.105Z,7.29
2023-03-19T05:04:41.057Z,7.28
2023-03-19T05:05:41.053Z,7.27
2023-03-19T05:06:41.038Z,7.26
2023-03-19T05:07:41.036Z,7.25
2023-03-19T05:08:41.027Z,7.25
2023-03-19T05:09:40.972Z,7.24
2023-03-19T05:10:40.731Z,7.23
2023-03-19T05:11:40.722Z,7.22
2023-03-19T05:12:40.737Z,7.23
2023-03-19T05:13:40.292Z,7.25
2023-03-19T05:14:40.731Z,7.28
2023-03-19T05:15:41.639Z,7.29
2023-03-19T05:16:40.736Z,7.30
2023-03-19T05:17:40.880Z,7.30
2023-03-19T05:18:41.454Z,7.30
2023-03-19T05:19:40.738Z,7.30
2023-03-19T05:20:40.837Z,7.30
2023-03-19T05:21:40.089Z,7.30
2023-03-19T05:22:40.085Z,7.30
2023-03-19T05:23:40.824Z,7.29
2023-03-19T05:24:40.779Z,7.29
2023-03-19T05:25:40.826Z,7.29
2023-03-19T05:26:40.764Z,7.29
2023-03-19T05:27:40.757Z,7.28
2023-03-19T05:28:40.737Z,7.28
2023-03-19T05:29:40.991Z,7.29
2023-03-19T05:30:40.086Z,7.30
2023-03-19T05:31:40.683Z,7.30
2023-03-19T05:32:40.898Z,7.30
2023-03-19T05:33:40.684Z,7.29
2023-03-19T05:34:40.666Z,7.28
2023-03-19T05:35:40.664Z,7.27
2023-03-19T05:36:40.632Z,7.25
2023-03-19T05:37:40.090Z,7.24
2023-03-19T05:38:40.602Z,7.23
2023-03-19T05:39:40.596Z,7.22
2023-03-19T05:40:40.557Z,7.21
2023-03-19T05:41:41.276Z,7.20
2023-03-19T05:42:40.546Z,7.19
2023-03-19T05:43:40.536Z,7.18
2023-03-19T05:44:40.519Z,7.18
2023-03-19T05:45:40.490Z,7.17
2023-03-19T05:46:40.606Z,7.17
2023-03-19T05:47:40.492Z,7.17
2023-03-19T05:48:40.474Z,7.17
2023-03-19T05:49:40.456Z,7.17
2023-03-19T05:50:40.437Z,7.17
2023-03-19T05:51:40.434Z,7.17
2023-03-19T05:52:40.434Z,7.17
2023-03-19T05:53:40.407Z,7.17
2023-03-19T05:54:40.390Z,7.16
2023-03-19T05:55:40.353Z,7.16
2023-03-19T05:56:40.358Z,7.16
2023-03-19T05:57:40.363Z,7.16
2023-03-19T05:58:40.337Z,7.18
2023-03-19T05:59:40.384Z,7.19
2023-03-19T06:00:40.278Z,7.21
2023-03-19T06:01:39.864Z,7.22
2023-03-19T06:02:40.303Z,7.23
2023-03-19T06:03:40.298Z,7.23
2023-03-19T06:04:40.246Z,7.25
2023-03-19T06:05:40.221Z,7.26
2023-03-19T06:06:40.223Z,7.27
2023-03-19T06:07:40.218Z,7.28
2023-03-19T06:08:40.214Z,7.30
2023-03-19T06:09:40.199Z,7.32
2023-03-19T06:10:40.150Z,7.34
2023-03-19T06:11:40.160Z,7.36
2023-03-19T06:12:40.141Z,7.38
2023-03-19T06:13:40.132Z,7.40
2023-03-19T06:14:40.120Z,7.43
2023-03-19T06:15:40.084Z,7.46
2023-03-19T06:16:40.100Z,7.49
2023-03-19T06:17:39.351Z,7.51
2023-03-19T06:18:40.089Z,7.53
2023-03-19T06:19:39.800Z,7.55
2023-03-19T06:20:39.794Z,7.57
2023-03-19T06:21:39.796Z,7.58
2023-03-19T06:22:40.016Z,7.59
2023-03-19T06:23:40.000Z,7.60
2023-03-19T06:24:39.971Z,7.60
2023-03-19T06:25:39.816Z,7.61
2023-03-19T06:26:39.787Z,7.61
2023-03-19T06:27:39.927Z,7.62
2023-03-19T06:28:39.795Z,7.64
2023-03-19T06:29:39.913Z,7.66
2023-03-19T06:30:39.869Z,7.68
2023-03-19T06:31:39.878Z,7.70
2023-03-19T06:32:39.885Z,7.73
2023-03-19T06:33:39.639Z,7.76
2023-03-19T06:34:39.817Z,7.79
2023-03-19T06:35:40.594Z,7.84
2023-03-19T06:36:39.808Z,7.88
2023-03-19T06:37:39.822Z,7.92
2023-03-19T06:38:40.511Z,7.96
2023-03-19T06:39:40.506Z,8.00
2023-03-19T06:40:40.494Z,8.02
2023-03-19T06:41:39.771Z,8.05
2023-03-19T06:42:39.782Z,8.07
2023-03-19T06:43:40.438Z,8.09
2023-03-19T06:44:40.424Z,8.12
2023-03-19T06:45:40.527Z,8.14
2023-03-19T06:46:40.409Z,8.17
2023-03-19T06:47:39.669Z,8.19
2023-03-19T06:48:39.674Z,8.21
2023-03-19T06:49:39.635Z,8.23
2023-03-19T06:50:40.372Z,8.26
2023-03-19T06:51:39.624Z,8.29
2023-03-19T06:52:39.608Z,8.33
2023-03-19T06:53:39.593Z,8.36
2023-03-19T06:54:39.576Z,8.40
2023-03-19T06:55:39.788Z,8.44
2023-03-19T06:56:39.566Z,8.47
2023-03-19T06:57:38.804Z,8.53
2023-03-19T06:58:39.535Z,8.63
2023-03-19T06:59:39.501Z,8.73
2023-03-19T07:00:39.503Z,8.83
2023-03-19T07:01:39.481Z,8.92
2023-03-19T07:02:39.451Z,9.01
2023-03-19T07:03:39.460Z,9.08
2023-03-19T07:04:39.452Z,9.15
2023-03-19T07:05:39.407Z,9.20
2023-03-19T07:06:39.617Z,9.25
2023-03-19T07:07:39.407Z,9.25
2023-03-19T07:08:39.387Z,9.22
2023-03-19T07:09:39.389Z,9.20
2023-03-19T07:10:39.329Z,9.22
2023-03-19T07:11:39.350Z,9.27
2023-03-19T07:12:39.331Z,9.31
2023-03-19T07:13:39.326Z,9.35
2023-03-19T07:14:39.314Z,9.39
2023-03-19T07:15:39.270Z,9.41
2023-03-19T07:16:39.279Z,9.43
2023-03-19T07:17:39.992Z,9.41
2023-03-19T07:18:39.258Z,9.40
2023-03-19T07:19:39.232Z,9.40
2023-03-19T07:20:39.200Z,9.43
2023-03-19T07:21:38.488Z,9.44
2023-03-19T07:22:38.830Z,9.47
2023-03-19T07:23:39.193Z,9.50
2023-03-19T07:24:39.171Z,9.53
2023-03-19T07:25:39.132Z,9.57
2023-03-19T07:26:39.140Z,9.60
2023-03-19T07:27:38.479Z,9.62
2023-03-19T07:28:39.124Z,9.64
2023-03-19T07:29:38.359Z,9.65
2023-03-19T07:30:38.438Z,9.68
2023-03-19T07:31:39.095Z,9.71
2023-03-19T07:32:38.870Z,9.75
2023-03-19T07:33:39.037Z,9.79
2023-03-19T07:34:39.036Z,9.82
2023-03-19T07:35:38.348Z,9.85
2023-03-19T07:36:39.004Z,9.89
2023-03-19T07:37:38.293Z,9.92
2023-03-19T07:38:38.425Z,9.99
2023-03-19T07:39:38.965Z,10.11
2023-03-19T07:40:40.033Z,10.25
2023-03-19T07:41:38.941Z,10.40
2023-03-19T07:42:38.939Z,10.52
2023-03-19T07:43:38.569Z,10.62
2023-03-19T07:44:38.894Z,10.69
2023-03-19T07:45:38.173Z,10.76
2023-03-19T07:46:38.663Z,10.83
2023-03-19T07:47:38.855Z,10.91
2023-03-19T07:48:38.703Z,11.00
2023-03-19T07:49:38.818Z,11.08
2023-03-19T07:50:39.559Z,11.15
2023-03-19T07:51:39.508Z,11.23
2023-03-19T07:52:38.777Z,11.29
2023-03-19T07:53:39.486Z,11.35
2023-03-19T07:54:39.466Z,11.42
2023-03-19T07:55:39.479Z,11.48
2023-03-19T07:56:39.446Z,11.52
2023-03-19T07:57:39.440Z,11.58
2023-03-19T07:58:39.425Z,11.65
2023-03-19T07:59:39.399Z,11.71
2023-03-19T08:00:39.383Z,11.73
2023-03-19T08:01:39.377Z,11.72
2023-03-19T08:02:39.400Z,11.72
2023-03-19T08:03:38.625Z,11.76
2023-03-19T08:04:38.683Z,11.82
2023-03-19T08:05:38.603Z,11.90
2023-03-19T08:06:38.575Z,11.97
2023-03-19T08:07:38.590Z,12.00
2023-03-19T08:08:38.569Z,12.09
2023-03-19T08:09:38.540Z,12.18
2023-03-19T08:10:39.145Z,12.24
2023-03-19T08:11:38.498Z,12.33
2023-03-19T08:12:37.880Z,12.39
2023-03-19T08:13:38.512Z,12.47
2023-03-19T08:14:38.470Z,12.53
2023-03-19T08:15:38.469Z,12.62
2023-03-19T08:16:38.453Z,12.66
2023-03-19T08:17:38.474Z,12.66
2023-03-19T08:18:38.428Z,12.69
2023-03-19T08:19:38.414Z,12.78
2023-03-19T08:20:38.408Z,12.82
2023-03-19T08:21:38.385Z,12.84
2023-03-19T08:22:38.366Z,12.84
2023-03-19T08:23:38.345Z,12.83
2023-03-19T08:24:38.345Z,12.86
2023-03-19T08:25:37.595Z,12.86
2023-03-19T08:26:38.307Z,12.97
2023-03-19T08:27:38.327Z,13.15
2023-03-19T08:28:38.297Z,13.36
2023-03-19T08:29:38.282Z,13.68
2023-03-19T08:30:38.561Z,13.84
2023-03-19T08:31:38.229Z,13.95
2023-03-19T08:32:38.264Z,14.04
2023-03-19T08:33:38.226Z,14.30
2023-03-19T08:34:38.211Z,14.56
2023-03-19T08:35:38.237Z,14.71
2023-03-19T08:36:38.165Z,14.73
2023-03-19T08:37:38.170Z,14.76
2023-03-19T08:38:37.900Z,14.76
2023-03-19T08:39:37.481Z,14.43
2023-03-19T08:40:37.912Z,14.14
2023-03-19T08:41:37.391Z,13.74
2023-03-19T08:42:38.100Z,13.53
2023-03-19T08:43:38.124Z,13.53
2023-03-19T08:44:37.908Z,13.56
2023-03-19T08:45:38.070Z,13.57
2023-03-19T08:46:38.073Z,13.59
2023-03-19T08:47:38.032Z,13.50
2023-03-19T08:48:39.608Z,13.41
2023-03-19T08:49:37.899Z,13.34
2023-03-19T08:50:38.187Z,13.26
2023-03-19T08:51:37.959Z,13.18
2023-03-19T08:52:37.911Z,13.08
2023-03-19T08:53:37.983Z,12.97
2023-03-19T08:54:37.966Z,12.82
2023-03-19T08:55:37.930Z,12.73
2023-03-19T08:56:37.906Z,12.61
2023-03-19T08:57:37.905Z,12.53
2023-03-19T08:58:38.585Z,12.47
2023-03-19T08:59:37.651Z,12.49
2023-03-19T09:00:37.875Z,12.53
2023-03-19T09:01:38.577Z,12.52
2023-03-19T09:02:38.533Z,12.48
2023-03-19T09:03:38.535Z,12.42
2023-03-19T09:04:38.555Z,12.39
2023-03-19T09:05:38.507Z,12.35
2023-03-19T09:06:38.492Z,12.34
2023-03-19T09:07:37.771Z,12.30
2023-03-19T09:08:37.749Z,12.24
2023-03-19T09:09:37.722Z,12.20
2023-03-19T09:10:37.721Z,12.16
2023-03-19T09:11:37.751Z,12.10
2023-03-19T09:12:38.410Z,12.10
2023-03-19T09:13:37.672Z,12.10
2023-03-19T09:14:37.669Z,12.11
2023-03-19T09:15:37.708Z,12.16
2023-03-19T09:16:37.607Z,12.21
2023-03-19T09:17:37.625Z,12.30
2023-03-19T09:18:37.626Z,12.43
2023-03-19T09:19:37.599Z,12.51
2023-03-19T09:20:37.579Z,12.64
2023-03-19T09:21:37.549Z,12.86
2023-03-19T09:22:37.558Z,12.99
2023-03-19T09:23:37.536Z,13.06
2023-03-19T09:24:40.392Z,13.17
2023-03-19T09:25:37.524Z,13.29
2023-03-19T09:26:37.482Z,13.38
2023-03-19T09:27:37.486Z,13.44
2023-03-19T09:28:37.485Z,13.36
2023-03-19T09:29:37.446Z,13.23
2023-03-19T09:30:37.443Z,13.26
2023-03-19T09:31:37.458Z,13.31
2023-03-19T09:32:37.456Z,13.31
2023-03-19T09:33:37.402Z,13.40
2023-03-19T09:34:37.386Z,13.47
2023-03-19T09:35:37.533Z,13.50
2023-03-19T09:36:37.365Z,13.51
2023-03-19T09:37:37.359Z,13.47
2023-03-19T09:38:37.345Z,13.42
2023-03-19T09:39:37.080Z,13.38
2023-03-19T09:40:37.304Z,13.34
2023-03-19T09:41:37.260Z,13.29
2023-03-19T09:42:37.291Z,13.25
2023-03-19T09:43:37.282Z,13.11
2023-03-19T09:44:37.054Z,12.97
2023-03-19T09:45:37.059Z,12.89
2023-03-19T09:46:37.254Z,12.90
2023-03-19T09:47:36.971Z,12.90
2023-03-19T09:48:37.204Z,12.79
2023-03-19T09:49:36.941Z,12.76
2023-03-19T09:50:36.961Z,12.78
2023-03-19T09:51:37.161Z,12.82
2023-03-19T09:52:36.441Z,12.77
2023-03-19T09:53:37.127Z,12.68
2023-03-19T09:54:37.121Z,12.62
2023-03-19T09:55:37.403Z,12.60
2023-03-19T09:56:37.089Z,12.59
2023-03-19T09:57:37.050Z,12.62
2023-03-19T09:58:36.614Z,12.59
2023-03-19T09:59:37.064Z,12.58
2023-03-19T10:00:36.352Z,12.59
2023-03-19T10:01:37.087Z,12.59
2023-03-19T10:02:37.735Z,12.54
2023-03-19T10:03:36.786Z,12.49
2023-03-19T10:04:36.989Z,12.50
2023-03-19T10:05:37.101Z,12.55
2023-03-19T10:06:36.889Z,12.57
2023-03-19T10:07:36.913Z,12.59
2023-03-19T10:08:36.928Z,12.59
2023-03-19T10:09:37.632Z,12.58
2023-03-19T10:10:37.608Z,12.50
2023-03-19T10:11:36.880Z,12.43
2023-03-19T10:12:37.603Z,12.36
2023-03-19T10:13:36.850Z,12.30
2023-03-19T10:14:36.868Z,12.29
2023-03-19T10:15:37.759Z,12.24
2023-03-19T10:16:37.609Z,12.19
2023-03-19T10:17:37.542Z,12.11
2023-03-19T10:18:36.798Z,11.85
2023-03-19T10:19:40.337Z,11.70
2023-03-19T10:20:37.476Z,11.63
2023-03-19T10:21:36.754Z,11.57
2023-03-19T10:22:36.716Z,11.45
2023-03-19T10:23:36.720Z,11.36
2023-03-19T10:24:36.721Z,11.32
2023-03-19T10:25:38.490Z,11.32
2023-03-19T10:26:37.413Z,11.28
2023-03-19T10:27:36.643Z,11.26
2023-03-19T10:28:36.656Z,11.17
2023-03-19T10:29:36.643Z,11.10
2023-03-19T10:30:36.623Z,11.02
2023-03-19T10:31:36.814Z,10.97
2023-03-19T10:32:36.628Z,10.92
2023-03-19T10:33:36.582Z,10.88
2023-03-19T10:34:36.599Z,10.78
2023-03-19T10:35:36.928Z,10.73
2023-03-19T10:36:36.533Z,10.73
2023-03-19T10:37:36.503Z,10.72
2023-03-19T10:38:37.231Z,10.74
2023-03-19T10:39:36.491Z,10.75
2023-03-19T10:40:36.493Z,10.78
2023-03-19T10:41:36.471Z,10.77
2023-03-19T10:42:36.425Z,10.80
2023-03-19T10:43:36.445Z,10.77
2023-03-19T10:44:36.450Z,10.73
2023-03-19T10:45:38.662Z,10.73
2023-03-19T10:46:36.407Z,10.77
2023-03-19T10:47:36.363Z,10.81
2023-03-19T10:48:36.377Z,10.83
2023-03-19T10:49:36.349Z,10.81
2023-03-19T10:50:36.371Z,10.77
2023-03-19T10:51:36.335Z,10.74
2023-03-19T10:52:36.302Z,10.75
2023-03-19T10:53:36.322Z,10.79
2023-03-19T10:54:36.287Z,10.82
2023-03-19T10:55:36.673Z,10.86
2023-03-19T10:56:36.068Z,10.90
2023-03-19T10:57:36.007Z,10.92
2023-03-19T10:58:36.017Z,10.88
2023-03-19T10:59:35.998Z,10.87
2023-03-19T11:00:36.227Z,10.85
2023-03-19T11:01:36.193Z,10.85
2023-03-19T11:02:36.015Z,10.85
2023-03-19T11:03:36.043Z,10.87
2023-03-19T11:04:36.011Z,10.86
2023-03-19T11:05:36.174Z,10.84
2023-03-19T11:06:36.120Z,10.81
2023-03-19T11:07:36.012Z,10.83
2023-03-19T11:08:36.254Z,10.80
2023-03-19T11:09:36.085Z,10.81
2023-03-19T11:10:36.100Z,10.81
2023-03-19T11:11:36.008Z,10.81
2023-03-19T11:12:36.010Z,10.82
2023-03-19T11:13:36.040Z,10.84
2023-03-19T11:14:36.038Z,10.85
2023-03-19T11:15:36.925Z,10.85
2023-03-19T11:16:36.806Z,10.84
2023-03-19T11:17:36.713Z,10.81
2023-03-19T11:18:35.285Z,10.83
2023-03-19T11:19:35.945Z,10.89
2023-03-19T11:20:35.550Z,10.95
2023-03-19T11:21:35.929Z,11.03
2023-03-19T11:22:35.911Z,11.05
2023-03-19T11:23:36.622Z,11.05
2023-03-19T11:24:35.893Z,11.01
2023-03-19T11:25:36.245Z,10.93
2023-03-19T11:26:35.865Z,10.90
2023-03-19T11:27:35.836Z,10.88
2023-03-19T11:28:35.807Z,10.81
2023-03-19T11:29:36.053Z,10.77
2023-03-19T11:30:35.801Z,10.72
2023-03-19T11:31:35.802Z,10.69
2023-03-19T11:32:35.846Z,10.68
2023-03-19T11:33:35.738Z,10.69
2023-03-19T11:34:35.739Z,10.71
2023-03-19T11:35:36.062Z,10.75
2023-03-19T11:36:34.981Z,10.74
2023-03-19T11:37:35.707Z,10.76
2023-03-19T11:38:35.660Z,10.75
2023-03-19T11:39:35.678Z,10.72
2023-03-19T11:40:35.656Z,10.69
2023-03-19T11:41:35.641Z,10.73
2023-03-19T11:42:35.651Z,10.77
2023-03-19T11:43:35.646Z,10.85
2023-03-19T11:44:35.619Z,10.91
2023-03-19T11:45:36.018Z,10.92
2023-03-19T11:46:35.910Z,10.98
2023-03-19T11:47:35.568Z,11.11
2023-03-19T11:48:35.535Z,11.31
2023-03-19T11:49:35.545Z,11.50
2023-03-19T11:50:35.541Z,11.63
2023-03-19T11:51:35.517Z,11.59
2023-03-19T11:52:35.496Z,11.63
2023-03-19T11:53:35.732Z,11.62
2023-03-19T11:54:35.472Z,11.62
2023-03-19T11:55:35.804Z,11.66
2023-03-19T11:56:35.445Z,11.75
2023-03-19T11:57:35.440Z,11.82
2023-03-19T11:58:35.048Z,11.95
2023-03-19T11:59:35.404Z,12.04
2023-03-19T12:00:34.664Z,12.08
2023-03-19T12:01:36.270Z,12.29
2023-03-19T12:02:35.433Z,12.58
2023-03-19T12:03:35.638Z,12.90
2023-03-19T12:04:35.345Z,12.82
2023-03-19T12:05:35.592Z,12.63
2023-03-19T12:06:35.066Z,12.47
2023-03-19T12:07:35.054Z,12.32
2023-03-19T12:08:35.054Z,12.21
2023-03-19T12:09:35.052Z,12.18
2023-03-19T12:10:35.566Z,12.22
2023-03-19T12:11:34.512Z,12.22
2023-03-19T12:12:35.238Z,12.30
2023-03-19T12:13:35.201Z,12.38
2023-03-19T12:14:34.592Z,12.53
2023-03-19T12:15:35.531Z,12.65
2023-03-19T12:16:39.019Z,12.92
2023-03-19T12:17:36.159Z,13.26
2023-03-19T12:18:35.130Z,13.66
2023-03-19T12:19:34.741Z,13.83
2023-03-19T12:20:35.341Z,13.88
2023-03-19T12:21:35.105Z,14.48
2023-03-19T12:22:34.859Z,15.33
2023-03-19T12:23:36.098Z,15.37
2023-03-19T12:24:34.888Z,15.03
2023-03-19T12:25:35.220Z,14.69
2023-03-19T12:26:35.777Z,14.63
2023-03-19T12:27:35.047Z,14.91
2023-03-19T12:28:35.750Z,15.03
2023-03-19T12:29:35.728Z,15.01
2023-03-19T12:30:35.713Z,14.68
2023-03-19T12:31:35.786Z,14.27
2023-03-19T12:32:35.710Z,14.04
2023-03-19T12:33:35.666Z,13.65
2023-03-19T12:34:35.658Z,13.61
2023-03-19T12:35:35.255Z,13.65
2023-03-19T12:36:35.639Z,13.67
2023-03-19T12:37:35.634Z,13.63
2023-03-19T12:38:35.590Z,13.63
2023-03-19T12:39:35.586Z,13.71
2023-03-19T12:40:34.833Z,13.79
2023-03-19T12:41:34.821Z,14.00
2023-03-19T12:42:34.822Z,14.23
2023-03-19T12:43:34.075Z,14.43
2023-03-19T12:44:34.767Z,14.57
2023-03-19T12:45:35.025Z,14.55
2023-03-19T12:46:34.832Z,14.48
2023-03-19T12:47:34.741Z,14.43
2023-03-19T12:48:34.742Z,14.40
2023-03-19T12:49:34.556Z,14.29
2023-03-19T12:50:34.911Z,14.02
2023-03-19T12:51:34.047Z,13.91
2023-03-19T12:52:34.676Z,13.74
2023-03-19T12:53:34.650Z,13.75
2023-03-19T12:54:34.626Z,13.92
2023-03-19T12:55:35.659Z,14.18
2023-03-19T12:56:34.616Z,14.83
2023-03-19T12:57:34.611Z,15.58
2023-03-19T12:58:34.614Z,16.11
2023-03-19T12:59:34.557Z,16.45
2023-03-19T13:00:34.767Z,16.73
2023-03-19T13:01:34.603Z,16.94
2023-03-19T13:02:34.606Z,16.19
2023-03-19T13:03:34.539Z,15.79
2023-03-19T13:04:34.530Z,15.40
2023-03-19T13:05:34.495Z,15.10
2023-03-19T13:06:34.487Z,15.12
2023-03-19T13:07:33.748Z,15.89